sensor_id;sensor_type;location;lat;lon;timestamp;P1;durP1;ratioP1;P2;durP2;ratioP2
76409;SDS011;65238;42.662;23.280;2023-04-05T00:00:49;15.25;;;9.20;;
76409;SDS011;65238;42.662;23.280;2023-04-05T00:03:14;17.58;;;10.13;;
76409;SDS011;65238;42.662;23.280;2023-04-05T00:05:41;16.55;;;9.82;;
76409;SDS011;65238;42.662;23.280;2023-04-05T00:08:07;18.08;;;10.23;;
76409;SDS011;65238;42.662;23.280;2023-04-05T00:10:37;17.40;;;10.13;;
76409;SDS011;65238;42.662;23.280;2023-04-05T00:13:03;17.73;;;10.48;;
76409;SDS011;65238;42.662;23.280;2023-04-05T00:15:28;17.77;;;10.95;;
76409;SDS011;65238;42.662;23.280;2023-04-05T00:17:55;18.13;;;10.85;;
76409;SDS011;65238;42.662;23.280;2023-04-05T00:20:20;19.05;;;10.27;;
76409;SDS011;65238;42.662;23.280;2023-04-05T00:22:46;17.35;;;10.45;;
76409;SDS011;65238;42.662;23.280;2023-04-05T00:25:14;17.25;;;9.80;;
76409;SDS011;65238;42.662;23.280;2023-04-05T00:27:41;17.27;;;10.40;;
76409;SDS011;65238;42.662;23.280;2023-04-05T00:30:07;17.80;;;10.77;;
76409;SDS011;65238;42.662;23.280;2023-04-05T00:32:33;17.23;;;9.65;;
76409;SDS011;65238;42.662;23.280;2023-04-05T00:34:58;16.45;;;10.55;;
76409;SDS011;65238;42.662;23.280;2023-04-05T00:37:24;17.65;;;10.18;;
76409;SDS011;65238;42.662;23.280;2023-04-05T00:39:49;17.08;;;9.75;;
76409;SDS011;65238;42.662;23.280;2023-04-05T00:42:15;14.95;;;9.18;;
76409;SDS011;65238;42.662;23.280;2023-04-05T00:44:40;14.52;;;9.00;;
76409;SDS011;65238;42.662;23.280;2023-04-05T00:47:06;16.00;;;9.95;;
76409;SDS011;65238;42.662;23.280;2023-04-05T00:49:32;19.92;;;11.13;;
76409;SDS011;65238;42.662;23.280;2023-04-05T00:51:58;17.40;;;9.80;;
76409;SDS011;65238;42.662;23.280;2023-04-05T00:54:24;17.25;;;10.90;;
76409;SDS011;65238;42.662;23.280;2023-04-05T00:56:50;15.95;;;9.32;;
76409;SDS011;65238;42.662;23.280;2023-04-05T00:59:19;13.95;;;8.48;;
76409;SDS011;65238;42.662;23.280;2023-04-05T01:01:45;14.98;;;9.10;;
76409;SDS011;65238;42.662;23.280;2023-04-05T01:04:19;15.52;;;9.27;;
76409;SDS011;65238;42.662;23.280;2023-04-05T01:07:00;12.73;;;8.45;;
76409;SDS011;65238;42.662;23.280;2023-04-05T01:12:04;11.07;;;7.40;;
76409;SDS011;65238;42.662;23.280;2023-04-05T01:14:30;13.90;;;8.15;;
76409;SDS011;65238;42.662;23.280;2023-04-05T01:16:56;15.13;;;8.40;;
76409;SDS011;65238;42.662;23.280;2023-04-05T01:19:26;12.95;;;8.15;;
76409;SDS011;65238;42.662;23.280;2023-04-05T01:22:12;13.20;;;8.13;;
76409;SDS011;65238;42.662;23.280;2023-04-05T01:27:47;10.90;;;6.55;;
76409;SDS011;65238;42.662;23.280;2023-04-05T01:30:48;12.30;;;7.03;;
76409;SDS011;65238;42.662;23.280;2023-04-05T01:33:32;9.65;;;6.57;;
76409;SDS011;65238;42.662;23.280;2023-04-05T01:38:33;9.48;;;6.03;;
76409;SDS011;65238;42.662;23.280;2023-04-05T01:41:01;11.52;;;6.90;;
76409;SDS011;65238;42.662;23.280;2023-04-05T01:43:26;11.65;;;6.82;;
76409;SDS011;65238;42.662;23.280;2023-04-05T01:45:52;9.13;;;6.13;;
76409;SDS011;65238;42.662;23.280;2023-04-05T01:48:18;9.55;;;6.15;;
76409;SDS011;65238;42.662;23.280;2023-04-05T01:50:43;9.07;;;6.32;;
76409;SDS011;65238;42.662;23.280;2023-04-05T01:53:08;9.95;;;5.85;;
76409;SDS011;65238;42.662;23.280;2023-04-05T01:55:34;8.15;;;5.80;;
76409;SDS011;65238;42.662;23.280;2023-04-05T01:57:59;9.98;;;5.60;;
76409;SDS011;65238;42.662;23.280;2023-04-05T02:00:25;9.38;;;5.78;;
76409;SDS011;65238;42.662;23.280;2023-04-05T02:02:51;10.07;;;5.85;;
76409;SDS011;65238;42.662;23.280;2023-04-05T02:05:17;9.88;;;6.28;;
76409;SDS011;65238;42.662;23.280;2023-04-05T02:07:42;11.43;;;6.78;;
76409;SDS011;65238;42.662;23.280;2023-04-05T02:10:08;11.10;;;6.47;;
76409;SDS011;65238;42.662;23.280;2023-04-05T02:12:33;11.10;;;6.72;;
76409;SDS011;65238;42.662;23.280;2023-04-05T02:14:59;9.07;;;5.80;;
76409;SDS011;65238;42.662;23.280;2023-04-05T02:17:25;10.43;;;6.65;;
76409;SDS011;65238;42.662;23.280;2023-04-05T02:19:57;11.05;;;6.53;;
76409;SDS011;65238;42.662;23.280;2023-04-05T02:22:26;9.60;;;5.68;;
76409;SDS011;65238;42.662;23.280;2023-04-05T02:24:52;10.35;;;5.82;;
76409;SDS011;65238;42.662;23.280;2023-04-05T02:27:18;9.63;;;6.00;;
76409;SDS011;65238;42.662;23.280;2023-04-05T02:29:43;10.77;;;6.80;;
76409;SDS011;65238;42.662;23.280;2023-04-05T02:32:09;9.10;;;6.25;;
76409;SDS011;65238;42.662;23.280;2023-04-05T02:34:34;7.40;;;5.43;;
76409;SDS011;65238;42.662;23.280;2023-04-05T02:37:02;9.05;;;5.95;;
76409;SDS011;65238;42.662;23.280;2023-04-05T02:39:28;10.15;;;5.95;;
76409;SDS011;65238;42.662;23.280;2023-04-05T02:41:53;8.88;;;5.72;;
76409;SDS011;65238;42.662;23.280;2023-04-05T02:44:19;17.45;;;9.25;;
76409;SDS011;65238;42.662;23.280;2023-04-05T02:46:44;37.47;;;14.20;;
76409;SDS011;65238;42.662;23.280;2023-04-05T02:49:10;14.60;;;8.40;;
76409;SDS011;65238;42.662;23.280;2023-04-05T02:51:35;12.75;;;6.82;;
76409;SDS011;65238;42.662;23.280;2023-04-05T02:54:01;8.60;;;5.93;;
76409;SDS011;65238;42.662;23.280;2023-04-05T02:56:27;10.55;;;6.15;;
76409;SDS011;65238;42.662;23.280;2023-04-05T02:58:54;11.02;;;6.00;;
76409;SDS011;65238;42.662;23.280;2023-04-05T03:01:19;8.30;;;5.60;;
76409;SDS011;65238;42.662;23.280;2023-04-05T03:03:46;8.77;;;5.40;;
76409;SDS011;65238;42.662;23.280;2023-04-05T03:06:12;7.45;;;5.22;;
76409;SDS011;65238;42.662;23.280;2023-04-05T03:08:37;5.60;;;4.32;;
76409;SDS011;65238;42.662;23.280;2023-04-05T03:11:04;6.15;;;4.55;;
76409;SDS011;65238;42.662;23.280;2023-04-05T03:13:30;7.63;;;4.60;;
76409;SDS011;65238;42.662;23.280;2023-04-05T03:15:56;8.13;;;5.13;;
76409;SDS011;65238;42.662;23.280;2023-04-05T03:18:21;7.50;;;5.20;;
76409;SDS011;65238;42.662;23.280;2023-04-05T03:20:49;7.60;;;4.65;;
76409;SDS011;65238;42.662;23.280;2023-04-05T03:23:20;6.38;;;4.68;;
76409;SDS011;65238;42.662;23.280;2023-04-05T03:25:52;6.55;;;4.80;;
76409;SDS011;65238;42.662;23.280;2023-04-05T03:28:19;9.35;;;5.70;;
76409;SDS011;65238;42.662;23.280;2023-04-05T03:30:44;7.10;;;4.90;;
76409;SDS011;65238;42.662;23.280;2023-04-05T03:33:10;7.47;;;5.15;;
76409;SDS011;65238;42.662;23.280;2023-04-05T03:35:35;7.10;;;4.90;;
76409;SDS011;65238;42.662;23.280;2023-04-05T03:38:01;8.35;;;5.55;;
76409;SDS011;65238;42.662;23.280;2023-04-05T03:40:26;7.88;;;4.70;;
76409;SDS011;65238;42.662;23.280;2023-04-05T03:42:52;8.07;;;5.63;;
76409;SDS011;65238;42.662;23.280;2023-04-05T03:45:17;7.38;;;5.13;;
76409;SDS011;65238;42.662;23.280;2023-04-05T03:47:43;7.32;;;5.40;;
76409;SDS011;65238;42.662;23.280;2023-04-05T03:50:09;6.90;;;5.13;;
76409;SDS011;65238;42.662;23.280;2023-04-05T03:52:34;10.35;;;5.40;;
76409;SDS011;65238;42.662;23.280;2023-04-05T03:55:00;10.23;;;5.85;;
76409;SDS011;65238;42.662;23.280;2023-04-05T03:57:26;9.57;;;6.03;;
76409;SDS011;65238;42.662;23.280;2023-04-05T03:59:53;8.85;;;5.93;;
76409;SDS011;65238;42.662;23.280;2023-04-05T04:02:18;9.23;;;6.63;;
76409;SDS011;65238;42.662;23.280;2023-04-05T04:04:44;8.10;;;6.03;;
76409;SDS011;65238;42.662;23.280;2023-04-05T04:07:10;10.80;;;6.80;;
76409;SDS011;65238;42.662;23.280;2023-04-05T04:09:35;9.93;;;6.03;;
76409;SDS011;65238;42.662;23.280;2023-04-05T04:12:00;10.07;;;6.25;;
76409;SDS011;65238;42.662;23.280;2023-04-05T04:14:26;11.40;;;7.22;;
76409;SDS011;65238;42.662;23.280;2023-04-05T04:16:51;8.80;;;5.47;;
76409;SDS011;65238;42.662;23.280;2023-04-05T04:19:17;9.02;;;5.82;;
76409;SDS011;65238;42.662;23.280;2023-04-05T04:21:43;8.52;;;5.30;;
76409;SDS011;65238;42.662;23.280;2023-04-05T04:24:16;9.48;;;6.10;;
76409;SDS011;65238;42.662;23.280;2023-04-05T04:26:46;9.60;;;6.20;;
76409;SDS011;65238;42.662;23.280;2023-04-05T04:29:12;9.20;;;6.35;;
76409;SDS011;65238;42.662;23.280;2023-04-05T04:31:40;7.80;;;5.60;;
76409;SDS011;65238;42.662;23.280;2023-04-05T04:34:12;7.75;;;5.38;;
76409;SDS011;65238;42.662;23.280;2023-04-05T04:36:38;7.82;;;4.93;;
76409;SDS011;65238;42.662;23.280;2023-04-05T04:39:06;9.43;;;5.03;;
76409;SDS011;65238;42.662;23.280;2023-04-05T04:41:34;8.70;;;4.75;;
76409;SDS011;65238;42.662;23.280;2023-04-05T04:44:00;6.40;;;4.63;;
76409;SDS011;65238;42.662;23.280;2023-04-05T04:46:27;8.45;;;5.22;;
76409;SDS011;65238;42.662;23.280;2023-04-05T04:51:30;5.83;;;3.93;;
76409;SDS011;65238;42.662;23.280;2023-04-05T04:53:57;5.30;;;3.58;;
76409;SDS011;65238;42.662;23.280;2023-04-05T04:56:22;5.68;;;3.55;;
76409;SDS011;65238;42.662;23.280;2023-04-05T04:58:47;3.90;;;3.13;;
76409;SDS011;65238;42.662;23.280;2023-04-05T05:01:13;3.80;;;3.00;;
76409;SDS011;65238;42.662;23.280;2023-04-05T05:03:38;3.42;;;2.90;;
76409;SDS011;65238;42.662;23.280;2023-04-05T05:06:04;5.20;;;3.60;;
76409;SDS011;65238;42.662;23.280;2023-04-05T05:08:30;4.82;;;3.42;;
76409;SDS011;65238;42.662;23.280;2023-04-05T05:10:55;4.75;;;3.38;;
76409;SDS011;65238;42.662;23.280;2023-04-05T05:13:21;5.07;;;3.55;;
76409;SDS011;65238;42.662;23.280;2023-04-05T05:15:46;5.32;;;3.38;;
76409;SDS011;65238;42.662;23.280;2023-04-05T05:18:12;5.78;;;4.10;;
76409;SDS011;65238;42.662;23.280;2023-04-05T05:20:38;6.13;;;4.35;;
76409;SDS011;65238;42.662;23.280;2023-04-05T05:23:03;7.53;;;4.50;;
76409;SDS011;65238;42.662;23.280;2023-04-05T05:25:29;8.48;;;4.78;;
76409;SDS011;65238;42.662;23.280;2023-04-05T05:27:55;9.35;;;5.45;;
76409;SDS011;65238;42.662;23.280;2023-04-05T05:30:21;10.82;;;5.55;;
76409;SDS011;65238;42.662;23.280;2023-04-05T05:32:46;9.63;;;5.78;;
76409;SDS011;65238;42.662;23.280;2023-04-05T05:35:12;7.68;;;5.00;;
76409;SDS011;65238;42.662;23.280;2023-04-05T05:37:38;7.90;;;4.85;;
76409;SDS011;65238;42.662;23.280;2023-04-05T05:40:03;8.73;;;5.18;;
76409;SDS011;65238;42.662;23.280;2023-04-05T05:42:29;9.15;;;5.30;;
76409;SDS011;65238;42.662;23.280;2023-04-05T05:45:02;6.53;;;4.60;;
76409;SDS011;65238;42.662;23.280;2023-04-05T05:47:29;5.88;;;4.00;;
76409;SDS011;65238;42.662;23.280;2023-04-05T05:49:54;7.15;;;4.40;;
76409;SDS011;65238;42.662;23.280;2023-04-05T05:52:20;6.43;;;3.47;;
76409;SDS011;65238;42.662;23.280;2023-04-05T05:54:45;5.88;;;3.38;;
76409;SDS011;65238;42.662;23.280;2023-04-05T05:57:11;4.32;;;2.97;;
76409;SDS011;65238;42.662;23.280;2023-04-05T05:59:37;3.33;;;2.72;;
76409;SDS011;65238;42.662;23.280;2023-04-05T06:02:02;3.90;;;2.55;;
76409;SDS011;65238;42.662;23.280;2023-04-05T06:04:28;3.03;;;2.13;;
76409;SDS011;65238;42.662;23.280;2023-04-05T06:06:53;3.75;;;2.42;;
76409;SDS011;65238;42.662;23.280;2023-04-05T06:09:19;2.97;;;1.92;;
76409;SDS011;65238;42.662;23.280;2023-04-05T06:11:46;1.92;;;1.52;;
76409;SDS011;65238;42.662;23.280;2023-04-05T06:14:11;4.05;;;2.60;;
76409;SDS011;65238;42.662;23.280;2023-04-05T06:16:37;2.50;;;1.90;;
76409;SDS011;65238;42.662;23.280;2023-04-05T06:19:02;5.22;;;2.70;;
76409;SDS011;65238;42.662;23.280;2023-04-05T06:21:27;2.88;;;1.90;;
76409;SDS011;65238;42.662;23.280;2023-04-05T06:23:53;3.45;;;2.15;;
76409;SDS011;65238;42.662;23.280;2023-04-05T06:26:19;2.95;;;2.00;;
76409;SDS011;65238;42.662;23.280;2023-04-05T06:28:47;2.90;;;1.83;;
76409;SDS011;65238;42.662;23.280;2023-04-05T06:31:13;2.38;;;1.58;;
76409;SDS011;65238;42.662;23.280;2023-04-05T06:33:40;3.10;;;2.00;;
76409;SDS011;65238;42.662;23.280;2023-04-05T06:36:06;2.60;;;1.90;;
76409;SDS011;65238;42.662;23.280;2023-04-05T06:38:31;2.13;;;1.60;;
76409;SDS011;65238;42.662;23.280;2023-04-05T06:40:57;5.75;;;1.75;;
76409;SDS011;65238;42.662;23.280;2023-04-05T06:43:22;3.78;;;2.25;;
76409;SDS011;65238;42.662;23.280;2023-04-05T06:45:48;3.65;;;2.08;;
76409;SDS011;65238;42.662;23.280;2023-04-05T06:48:13;3.88;;;2.00;;
76409;SDS011;65238;42.662;23.280;2023-04-05T06:50:38;2.10;;;1.58;;
76409;SDS011;65238;42.662;23.280;2023-04-05T06:53:04;2.00;;;1.40;;
76409;SDS011;65238;42.662;23.280;2023-04-05T06:55:30;4.38;;;1.30;;
76409;SDS011;65238;42.662;23.280;2023-04-05T06:57:56;1.48;;;1.27;;
76409;SDS011;65238;42.662;23.280;2023-04-05T07:00:22;1.83;;;1.10;;
76409;SDS011;65238;42.662;23.280;2023-04-05T07:02:47;1.40;;;1.02;;
76409;SDS011;65238;42.662;23.280;2023-04-05T07:05:13;1.85;;;1.38;;
76409;SDS011;65238;42.662;23.280;2023-04-05T07:07:39;2.88;;;1.60;;
76409;SDS011;65238;42.662;23.280;2023-04-05T07:10:06;1.98;;;1.50;;
76409;SDS011;65238;42.662;23.280;2023-04-05T07:12:32;3.58;;;2.05;;
76409;SDS011;65238;42.662;23.280;2023-04-05T07:14:58;2.75;;;1.80;;
76409;SDS011;65238;42.662;23.280;2023-04-05T07:17:23;3.63;;;2.00;;
76409;SDS011;65238;42.662;23.280;2023-04-05T07:19:49;2.63;;;1.65;;
76409;SDS011;65238;42.662;23.280;2023-04-05T07:22:15;2.67;;;1.60;;
76409;SDS011;65238;42.662;23.280;2023-04-05T07:24:40;2.13;;;1.40;;
76409;SDS011;65238;42.662;23.280;2023-04-05T07:27:06;2.55;;;1.77;;
76409;SDS011;65238;42.662;23.280;2023-04-05T07:29:31;4.25;;;2.20;;
76409;SDS011;65238;42.662;23.280;2023-04-05T07:31:59;3.05;;;1.88;;
76409;SDS011;65238;42.662;23.280;2023-04-05T07:34:24;2.33;;;1.50;;
76409;SDS011;65238;42.662;23.280;2023-04-05T07:36:51;2.40;;;1.67;;
76409;SDS011;65238;42.662;23.280;2023-04-05T07:39:16;4.30;;;2.45;;
76409;SDS011;65238;42.662;23.280;2023-04-05T07:41:42;2.90;;;1.60;;
76409;SDS011;65238;42.662;23.280;2023-04-05T07:44:07;2.05;;;1.50;;
76409;SDS011;65238;42.662;23.280;2023-04-05T07:46:33;2.63;;;1.50;;
76409;SDS011;65238;42.662;23.280;2023-04-05T07:48:59;2.75;;;2.00;;
76409;SDS011;65238;42.662;23.280;2023-04-05T07:51:24;3.60;;;2.05;;
76409;SDS011;65238;42.662;23.280;2023-04-05T07:53:51;3.50;;;1.83;;
76409;SDS011;65238;42.662;23.280;2023-04-05T07:56:16;3.40;;;2.20;;
76409;SDS011;65238;42.662;23.280;2023-04-05T07:58:42;5.38;;;2.47;;
76409;SDS011;65238;42.662;23.280;2023-04-05T08:01:08;6.80;;;2.40;;
76409;SDS011;65238;42.662;23.280;2023-04-05T08:03:35;2.90;;;1.70;;
76409;SDS011;65238;42.662;23.280;2023-04-05T08:06:13;2.35;;;1.50;;
76409;SDS011;65238;42.662;23.280;2023-04-05T08:08:41;3.97;;;1.80;;
76409;SDS011;65238;42.662;23.280;2023-04-05T08:11:07;2.38;;;1.50;;
76409;SDS011;65238;42.662;23.280;2023-04-05T08:13:33;2.58;;;1.92;;
76409;SDS011;65238;42.662;23.280;2023-04-05T08:15:59;2.25;;;1.60;;
76409;SDS011;65238;42.662;23.280;2023-04-05T08:18:27;3.00;;;1.98;;
76409;SDS011;65238;42.662;23.280;2023-04-05T08:20:53;4.07;;;1.95;;
76409;SDS011;65238;42.662;23.280;2023-04-05T08:23:19;5.00;;;2.47;;
76409;SDS011;65238;42.662;23.280;2023-04-05T08:25:44;3.58;;;2.00;;
76409;SDS011;65238;42.662;23.280;2023-04-05T08:28:10;2.22;;;1.80;;
76409;SDS011;65238;42.662;23.280;2023-04-05T08:30:35;3.70;;;1.67;;
76409;SDS011;65238;42.662;23.280;2023-04-05T08:33:01;3.47;;;2.20;;
76409;SDS011;65238;42.662;23.280;2023-04-05T08:35:26;2.83;;;1.83;;
76409;SDS011;65238;42.662;23.280;2023-04-05T08:37:52;2.88;;;1.75;;
76409;SDS011;65238;42.662;23.280;2023-04-05T08:40:17;2.72;;;1.95;;
76409;SDS011;65238;42.662;23.280;2023-04-05T08:42:51;2.42;;;2.05;;
76409;SDS011;65238;42.662;23.280;2023-04-05T08:45:16;2.13;;;1.77;;
76409;SDS011;65238;42.662;23.280;2023-04-05T08:47:45;4.03;;;1.83;;
76409;SDS011;65238;42.662;23.280;2023-04-05T08:50:12;2.22;;;1.65;;
76409;SDS011;65238;42.662;23.280;2023-04-05T08:52:38;2.72;;;1.75;;
76409;SDS011;65238;42.662;23.280;2023-04-05T08:55:06;2.40;;;1.85;;
76409;SDS011;65238;42.662;23.280;2023-04-05T08:57:32;5.10;;;3.35;;
76409;SDS011;65238;42.662;23.280;2023-04-05T09:00:01;1.90;;;1.67;;
76409;SDS011;65238;42.662;23.280;2023-04-05T09:02:27;1.75;;;1.65;;
76409;SDS011;65238;42.662;23.280;2023-04-05T09:04:53;3.72;;;1.65;;
76409;SDS011;65238;42.662;23.280;2023-04-05T09:07:19;3.20;;;1.70;;
76409;SDS011;65238;42.662;23.280;2023-04-05T09:09:46;2.40;;;1.40;;
76409;SDS011;65238;42.662;23.280;2023-04-05T09:12:14;3.03;;;2.10;;
76409;SDS011;65238;42.662;23.280;2023-04-05T09:14:39;4.28;;;2.42;;
76409;SDS011;65238;42.662;23.280;2023-04-05T09:17:05;2.60;;;1.90;;
76409;SDS011;65238;42.662;23.280;2023-04-05T09:19:31;4.22;;;2.50;;
76409;SDS011;65238;42.662;23.280;2023-04-05T09:24:29;5.15;;;2.28;;
76409;SDS011;65238;42.662;23.280;2023-04-05T09:27:05;4.38;;;2.40;;
76409;SDS011;65238;42.662;23.280;2023-04-05T09:29:38;3.40;;;2.63;;
76409;SDS011;65238;42.662;23.280;2023-04-05T09:32:05;3.28;;;2.42;;
76409;SDS011;65238;42.662;23.280;2023-04-05T09:34:32;4.15;;;2.83;;
76409;SDS011;65238;42.662;23.280;2023-04-05T09:37:00;5.32;;;2.58;;
76409;SDS011;65238;42.662;23.280;2023-04-05T09:39:27;4.97;;;3.30;;
76409;SDS011;65238;42.662;23.280;2023-04-05T09:42:06;5.10;;;3.08;;
76409;SDS011;65238;42.662;23.280;2023-04-05T09:47:18;4.25;;;3.00;;
76409;SDS011;65238;42.662;23.280;2023-04-05T09:49:45;4.40;;;2.72;;
76409;SDS011;65238;42.662;23.280;2023-04-05T09:52:21;7.05;;;2.97;;
76409;SDS011;65238;42.662;23.280;2023-04-05T09:54:47;3.35;;;2.60;;
76409;SDS011;65238;42.662;23.280;2023-04-05T09:57:14;5.60;;;2.80;;
76409;SDS011;65238;42.662;23.280;2023-04-05T09:59:40;4.10;;;2.72;;
76409;SDS011;65238;42.662;23.280;2023-04-05T10:02:05;5.22;;;2.80;;
76409;SDS011;65238;42.662;23.280;2023-04-05T10:04:37;4.10;;;2.88;;
76409;SDS011;65238;42.662;23.280;2023-04-05T10:07:04;4.78;;;2.95;;
76409;SDS011;65238;42.662;23.280;2023-04-05T10:09:29;3.20;;;2.63;;
76409;SDS011;65238;42.662;23.280;2023-04-05T10:11:54;3.97;;;3.05;;
76409;SDS011;65238;42.662;23.280;2023-04-05T10:14:20;3.72;;;2.60;;
76409;SDS011;65238;42.662;23.280;2023-04-05T10:16:54;5.07;;;3.40;;
76409;SDS011;65238;42.662;23.280;2023-04-05T10:19:28;5.18;;;3.85;;
76409;SDS011;65238;42.662;23.280;2023-04-05T10:21:58;5.30;;;4.00;;
76409;SDS011;65238;42.662;23.280;2023-04-05T10:27:13;5.25;;;3.92;;
76409;SDS011;65238;42.662;23.280;2023-04-05T10:29:44;6.82;;;4.30;;
76409;SDS011;65238;42.662;23.280;2023-04-05T10:32:21;6.95;;;4.13;;
76409;SDS011;65238;42.662;23.280;2023-04-05T10:35:09;6.68;;;4.28;;
76409;SDS011;65238;42.662;23.280;2023-04-05T10:40:42;6.32;;;4.43;;
76409;SDS011;65238;42.662;23.280;2023-04-05T10:43:11;6.38;;;4.90;;
76409;SDS011;65238;42.662;23.280;2023-04-05T10:45:41;6.03;;;4.18;;
76409;SDS011;65238;42.662;23.280;2023-04-05T10:48:20;7.45;;;4.10;;
76409;SDS011;65238;42.662;23.280;2023-04-05T10:50:52;5.30;;;3.80;;
76409;SDS011;65238;42.662;23.280;2023-04-05T10:53:18;5.93;;;4.20;;
76409;SDS011;65238;42.662;23.280;2023-04-05T10:55:45;11.13;;;4.80;;
76409;SDS011;65238;42.662;23.280;2023-04-05T10:58:11;9.52;;;4.70;;
76409;SDS011;65238;42.662;23.280;2023-04-05T11:00:38;5.95;;;4.30;;
76409;SDS011;65238;42.662;23.280;2023-04-05T11:03:04;9.27;;;4.97;;
76409;SDS011;65238;42.662;23.280;2023-04-05T11:05:31;6.50;;;4.50;;
76409;SDS011;65238;42.662;23.280;2023-04-05T11:08:05;7.38;;;4.07;;
76409;SDS011;65238;42.662;23.280;2023-04-05T11:10:33;6.18;;;4.25;;
76409;SDS011;65238;42.662;23.280;2023-04-05T11:21:10;6.85;;;5.07;;
76409;SDS011;65238;42.662;23.280;2023-04-05T11:23:31;6.38;;;4.30;;
76409;SDS011;65238;42.662;23.280;2023-04-05T11:26:06;5.97;;;4.53;;
76409;SDS011;65238;42.662;23.280;2023-04-05T11:28:35;5.88;;;4.32;;
76409;SDS011;65238;42.662;23.280;2023-04-05T11:36:10;6.57;;;4.13;;
76409;SDS011;65238;42.662;23.280;2023-04-05T11:38:36;7.47;;;4.95;;
76409;SDS011;65238;42.662;23.280;2023-04-05T11:41:13;6.78;;;4.85;;
76409;SDS011;65238;42.662;23.280;2023-04-05T11:43:44;7.63;;;5.00;;
76409;SDS011;65238;42.662;23.280;2023-04-05T11:46:13;6.40;;;4.82;;
76409;SDS011;65238;42.662;23.280;2023-04-05T11:48:43;7.35;;;5.30;;
76409;SDS011;65238;42.662;23.280;2023-04-05T11:51:13;8.57;;;6.70;;
76409;SDS011;65238;42.662;23.280;2023-04-05T11:53:39;9.43;;;5.60;;
76409;SDS011;65238;42.662;23.280;2023-04-05T11:56:10;6.53;;;4.80;;
76409;SDS011;65238;42.662;23.280;2023-04-05T11:58:40;7.30;;;5.57;;
76409;SDS011;65238;42.662;23.280;2023-04-05T12:01:07;7.82;;;4.85;;
76409;SDS011;65238;42.662;23.280;2023-04-05T12:03:33;8.23;;;6.07;;
76409;SDS011;65238;42.662;23.280;2023-04-05T12:06:00;10.02;;;6.45;;
76409;SDS011;65238;42.662;23.280;2023-04-05T12:08:47;11.20;;;7.00;;
76409;SDS011;65238;42.662;23.280;2023-04-05T12:11:15;11.73;;;6.38;;
76409;SDS011;65238;42.662;23.280;2023-04-05T12:13:41;9.63;;;6.15;;
76409;SDS011;65238;42.662;23.280;2023-04-05T12:16:07;11.45;;;6.40;;
76409;SDS011;65238;42.662;23.280;2023-04-05T12:18:36;7.63;;;5.70;;
76409;SDS011;65238;42.662;23.280;2023-04-05T12:21:05;9.15;;;5.75;;
76409;SDS011;65238;42.662;23.280;2023-04-05T12:23:31;7.93;;;5.93;;
76409;SDS011;65238;42.662;23.280;2023-04-05T12:25:57;8.07;;;5.82;;
76409;SDS011;65238;42.662;23.280;2023-04-05T12:28:23;9.88;;;6.20;;
76409;SDS011;65238;42.662;23.280;2023-04-05T12:33:28;10.75;;;6.28;;
76409;SDS011;65238;42.662;23.280;2023-04-05T12:35:54;8.48;;;6.32;;
76409;SDS011;65238;42.662;23.280;2023-04-05T12:38:20;8.70;;;6.60;;
76409;SDS011;65238;42.662;23.280;2023-04-05T12:40:50;9.93;;;7.03;;
76409;SDS011;65238;42.662;23.280;2023-04-05T12:43:16;11.02;;;6.85;;
76409;SDS011;65238;42.662;23.280;2023-04-05T12:45:44;9.45;;;6.90;;
76409;SDS011;65238;42.662;23.280;2023-04-05T12:48:20;8.77;;;6.88;;
76409;SDS011;65238;42.662;23.280;2023-04-05T12:50:48;9.52;;;6.80;;
76409;SDS011;65238;42.662;23.280;2023-04-05T12:53:19;9.00;;;6.82;;
76409;SDS011;65238;42.662;23.280;2023-04-05T12:55:50;10.07;;;7.15;;
76409;SDS011;65238;42.662;23.280;2023-04-05T12:58:17;10.73;;;7.35;;
76409;SDS011;65238;42.662;23.280;2023-04-05T13:00:45;9.45;;;6.75;;
76409;SDS011;65238;42.662;23.280;2023-04-05T13:03:14;7.90;;;6.28;;
76409;SDS011;65238;42.662;23.280;2023-04-05T13:05:45;10.32;;;7.15;;
76409;SDS011;65238;42.662;23.280;2023-04-05T13:08:11;10.43;;;7.47;;
76409;SDS011;65238;42.662;23.280;2023-04-05T13:10:36;8.88;;;6.25;;
76409;SDS011;65238;42.662;23.280;2023-04-05T13:13:02;8.82;;;6.53;;
76409;SDS011;65238;42.662;23.280;2023-04-05T13:15:27;12.52;;;7.20;;
76409;SDS011;65238;42.662;23.280;2023-04-05T13:17:53;8.50;;;6.07;;
76409;SDS011;65238;42.662;23.280;2023-04-05T13:20:19;9.88;;;6.00;;
76409;SDS011;65238;42.662;23.280;2023-04-05T13:22:45;9.35;;;6.43;;
76409;SDS011;65238;42.662;23.280;2023-04-05T13:25:11;9.57;;;6.80;;
76409;SDS011;65238;42.662;23.280;2023-04-05T13:27:37;12.10;;;7.18;;
76409;SDS011;65238;42.662;23.280;2023-04-05T13:30:02;8.57;;;6.63;;
76409;SDS011;65238;42.662;23.280;2023-04-05T13:32:28;8.93;;;6.18;;
76409;SDS011;65238;42.662;23.280;2023-04-05T13:34:53;10.18;;;7.20;;
76409;SDS011;65238;42.662;23.280;2023-04-05T13:37:19;13.45;;;7.03;;
76409;SDS011;65238;42.662;23.280;2023-04-05T13:39:44;8.77;;;6.40;;
76409;SDS011;65238;42.662;23.280;2023-04-05T13:42:10;9.30;;;6.78;;
76409;SDS011;65238;42.662;23.280;2023-04-05T13:44:35;10.02;;;7.35;;
76409;SDS011;65238;42.662;23.280;2023-04-05T13:47:02;10.52;;;6.60;;
76409;SDS011;65238;42.662;23.280;2023-04-05T13:49:28;11.10;;;6.90;;
76409;SDS011;65238;42.662;23.280;2023-04-05T13:51:53;11.30;;;7.35;;
76409;SDS011;65238;42.662;23.280;2023-04-05T13:54:18;8.63;;;6.55;;
76409;SDS011;65238;42.662;23.280;2023-04-05T13:56:44;9.50;;;6.90;;
76409;SDS011;65238;42.662;23.280;2023-04-05T13:59:10;8.15;;;5.88;;
76409;SDS011;65238;42.662;23.280;2023-04-05T14:01:40;8.68;;;6.28;;
76409;SDS011;65238;42.662;23.280;2023-04-05T14:04:06;12.05;;;7.13;;
76409;SDS011;65238;42.662;23.280;2023-04-05T14:06:32;8.80;;;7.13;;
76409;SDS011;65238;42.662;23.280;2023-04-05T14:08:57;11.45;;;7.47;;
76409;SDS011;65238;42.662;23.280;2023-04-05T14:11:22;9.07;;;6.70;;
76409;SDS011;65238;42.662;23.280;2023-04-05T14:13:51;9.55;;;5.88;;
76409;SDS011;65238;42.662;23.280;2023-04-05T14:16:16;8.85;;;6.50;;
76409;SDS011;65238;42.662;23.280;2023-04-05T14:18:42;10.75;;;7.13;;
76409;SDS011;65238;42.662;23.280;2023-04-05T14:21:07;16.17;;;8.18;;
76409;SDS011;65238;42.662;23.280;2023-04-05T14:23:33;12.27;;;8.10;;
76409;SDS011;65238;42.662;23.280;2023-04-05T14:25:59;13.55;;;8.30;;
76409;SDS011;65238;42.662;23.280;2023-04-05T14:28:25;12.50;;;8.38;;
76409;SDS011;65238;42.662;23.280;2023-04-05T14:30:50;15.70;;;8.38;;
76409;SDS011;65238;42.662;23.280;2023-04-05T14:33:16;13.70;;;8.73;;
76409;SDS011;65238;42.662;23.280;2023-04-05T14:35:42;15.20;;;9.38;;
76409;SDS011;65238;42.662;23.280;2023-04-05T14:38:07;10.43;;;7.57;;
76409;SDS011;65238;42.662;23.280;2023-04-05T14:40:33;12.63;;;8.55;;
76409;SDS011;65238;42.662;23.280;2023-04-05T14:42:58;16.77;;;9.20;;
76409;SDS011;65238;42.662;23.280;2023-04-05T14:45:24;11.65;;;7.70;;
76409;SDS011;65238;42.662;23.280;2023-04-05T14:47:51;12.00;;;8.23;;
76409;SDS011;65238;42.662;23.280;2023-04-05T14:50:17;12.88;;;8.10;;
76409;SDS011;65238;42.662;23.280;2023-04-05T14:52:42;13.15;;;8.32;;
76409;SDS011;65238;42.662;23.280;2023-04-05T14:55:09;15.27;;;8.95;;
76409;SDS011;65238;42.662;23.280;2023-04-05T14:57:37;11.68;;;7.28;;
76409;SDS011;65238;42.662;23.280;2023-04-05T15:00:06;12.00;;;8.25;;
76409;SDS011;65238;42.662;23.280;2023-04-05T15:02:33;13.20;;;8.15;;
76409;SDS011;65238;42.662;23.280;2023-04-05T15:04:59;13.75;;;8.52;;
76409;SDS011;65238;42.662;23.280;2023-04-05T15:07:25;11.23;;;7.93;;